• Join FlightAware (Why Join?)
  • Login
  • US Flag 
05:27PM EDT


 

Airport Tracker/Info


-or-


 

Live Flight TrackerFlight Track Log ✈ G-VROY ✈ 02-May-2012 ✈ TBPB / BGI - TAPA / ANU

Flight Track Log - Related Links

Times and Time Zones

All times are in EDT time to prevent confusion due to time zone crossing. See the G-VROY flight status page for this flight to view local times or setup timezone preferences in your user account.

Time Position Orientation Groundspeed Altitude Reporting Facility
EDT Latitude Longitude Course Direction KTS MPH feet Rate Location/Type
12:50PM 13.0666 -59.5000 353° North -1  Level FlightAware Direct Aircraft Datalink
02:13PM 13.0942 -59.5033 332° Northwest  Level Estimated
02:14PM 13.1725 -59.5467 332° Northwest  Level Estimated
02:15PM 13.2507 -59.5902 332° Northwest  Level Estimated
02:15PM 19.7722 -63.3382 151° Southeast  Level Estimated
02:17PM 19.6726 -63.2788 151° Southeast  Level Estimated
02:18PM 19.5950 -63.2326 151° Southeast  Level Estimated
02:19PM 19.5174 -63.1864 151° Southeast  Level Estimated
02:20PM 19.4398 -63.1402 151° Southeast  Level Estimated
02:21PM 19.3622 -63.0941 151° Southeast  Level Estimated
02:22PM 19.2846 -63.0481 151° Southeast  Level Estimated
02:23PM 19.2069 -63.0020 151° Southeast  Level Estimated
02:24PM 19.1293 -62.9561 151° Southeast  Level Estimated
02:25PM 19.0516 -62.9101 151° Southeast  Level Estimated
02:26PM 18.9739 -62.8643 151° Southeast  Level Estimated
02:27PM 18.8963 -62.8184 151° Southeast  Level Estimated
02:28PM 18.8186 -62.7726 151° Southeast  Level Estimated
02:29PM 18.7409 -62.7268 151° Southeast  Level Estimated
02:30PM 18.6631 -62.6811 151° Southeast  Level Estimated
02:31PM 18.5854 -62.6354 151° Southeast  Level Estimated
02:32PM 18.5077 -62.5898 151° Southeast  Level Estimated
02:33PM 18.4299 -62.5442 151° Southeast  Level Estimated
02:34PM 18.3521 -62.4987 151° Southeast  Level Estimated
02:35PM 18.2744 -62.4532 151° Southeast  Level Estimated
02:36PM 18.1966 -62.4077 151° Southeast  Level Estimated
02:37PM 18.1188 -62.3623 151° Southeast  Level Estimated
02:38PM 18.0410 -62.3169 151° Southeast  Level Estimated
02:39PM 17.9632 -62.2715 151° Southeast  Level Estimated
02:40PM 17.8853 -62.2262 151° Southeast  Level Estimated
02:41PM 17.8075 -62.1809 151° Southeast  Level Estimated
02:42PM 17.7296 -62.1357 151° Southeast  Level Estimated
02:43PM 17.6518 -62.0905 151° Southeast  Level Estimated
02:44PM 17.5739 -62.0454 151° Southeast  Level Estimated
02:45PM 17.4960 -62.0002 151° Southeast  Level Estimated
02:46PM 17.4181 -61.9552 151° Southeast  Level Estimated
02:47PM 17.3402 -61.9101 151° Southeast  Level Estimated
02:48PM 17.2623 -61.8651 151° Southeast  Level Estimated
02:49PM 17.1990 -61.8286 151° Southeast  Level Estimated
02:50PM 17.1357 -61.7921 331° Northwest  Level Estimated
02:51PM 17.1990 -61.8285 151° Southeast  Level Estimated
02:52PM 17.1357 -61.7921 331° Northwest  Level Estimated
02:53PM 17.2136 -61.8370 151° Southeast  Level Estimated
02:54PM 17.1357 -61.7921 331° Northwest  Level Estimated
02:55PM 17.2136 -61.8370 151° Southeast  Level Estimated
02:56PM 17.1357 -61.7921 331° Northwest  Level Estimated
02:57PM 17.2136 -61.8370 151° Southeast  Level Estimated
02:58PM 17.1357 -61.7921 331° Northwest  Level Estimated
02:59PM 17.2136 -61.8370 151° Southeast  Level Estimated
03:00PM 17.1357 -61.7921 331° Northwest  Level Estimated
03:01PM 17.2136 -61.8370 151° Southeast  Level Estimated
03:02PM 17.1357 -61.7921 331° Northwest  Level Estimated
03:03PM 17.2136 -61.8370 331° Northwest  Level Estimated